• Join FlightAware (Why Join?)
  • Login
  • US Flag 
02:02PM EDT


 

Airport Tracker/Info


-or-


 

Live Flight TrackerFlight Track Log ✈ EIA5127 ✈ 04-Jul-2010 ✈ EGPK / PIK - KCHS

Flight Track Log - Related Links

Times and Time Zones

All times are in EDT time to prevent confusion due to time zone crossing. See the EIA5127 flight status page for this flight to view local times or setup timezone preferences in your user account.

Time Position Orientation Groundspeed Altitude Reporting Facility
EDT Latitude Longitude Course Direction KTS MPH feet Rate Location/Type
11:07AM 57.0000 -20.0000 285° West 427 491 33,000  Level Transoceanic Report
11:53AM 58.0000 -30.0000 274° West 443 510 33,000  Level Transoceanic Report
12:36PM 58.0000 -40.0000 254° West 444 511 33,000  Level Transoceanic Report
01:24PM 56.0000 -50.0000 250° West 456 525 33,000  Level Transoceanic Report
01:52PM 54.6167 -55.8167 232° Southwest 440 506 33,000  Level Gander Center
01:53PM 54.5333 -56.0000 238° Southwest 450 518 33,000  Level Gander Center
01:54PM 54.4667 -56.1833 236° Southwest 450 518 33,100 600 Climbing Gander Center
01:55PM 54.4000 -56.3500 224° Southwest 450 518 34,300 1,140 Climbing Gander Center
01:56PM 54.3000 -56.5167 236° Southwest 450 518 35,400 960 Climbing Gander Center
01:57PM 54.2333 -56.6833 221° Southwest 450 518 36,300 900 Climbing Gander Center
01:58PM 54.1333 -56.8333 227° Southwest 450 518 37,200 840 Climbing Gander Center
01:59PM 54.0500 -56.9833 238° Southwest 450 518 38,000 360 Climbing Gander Center
02:00PM 53.9833 -57.1667 227° Southwest 450 518 38,000  Level Gander Center
02:01PM 53.9000 -57.3167 223° Southwest 440 506 38,000  Level Gander Center
02:02PM 53.8167 -57.4500 227° Southwest 440 506 38,000  Level Gander Center
02:03PM 53.7333 -57.6000 227° Southwest 440 506 38,000  Level Gander Center
02:04PM 53.6500 -57.7500 233° Southwest 440 506 38,000  Level Gander Center
02:05PM 53.5667 -57.9333 227° Southwest 440 506 38,000  Level Gander Center
02:06PM 53.4833 -58.0833 224° Southwest 440 506 38,000  Level Gander Center
02:07PM 53.4000 -58.2167 233° Southwest 440 506 38,000  Level Gander Center
02:08PM 53.3333 -58.3667 227° Southwest 440 506 38,000  Level Gander Center
02:09PM 53.2500 -58.5167 222° Southwest 440 506 38,000  Level Gander Center
02:10PM 53.1500 -58.6667 224° Southwest 440 506 38,000  Level Gander Center
02:11PM 53.0667 -58.8000 233° Southwest 440 506 38,000  Level Gander Center
02:12PM 52.9833 -58.9833 230° Southwest 440 506 38,000  Level Gander Center
02:13PM 52.9167 -59.1167 227° Southwest 440 506 38,000  Level Gander Center
02:14PM 52.8333 -59.2667 219° Southwest 440 506 38,000  Level Gander Center
02:15PM 52.7333 -59.4000 228° Southwest 440 506 38,000  Level Gander Center
02:16PM 52.6500 -59.5500 231° Southwest 450 518 38,000  Level Gander Center
02:17PM 52.5667 -59.7167 224° Southwest 450 518 38,000  Level Gander Center
02:18PM 52.4833 -59.8500 223° Southwest 450 518 38,000  Level Gander Center
02:19PM 52.3833 -60.0000 231° Southwest 450 518 38,000  Level Gander Center
02:20PM 52.3000 -60.1667 219° Southwest 450 518 38,000  Level Gander Center
02:21PM 52.2000 -60.3000 225° Southwest 460 529 38,000  Level Gander Center
02:22PM 52.1167 -60.4333 231° Southwest 460 529 38,000  Level Gander Center
02:23PM 52.0333 -60.6000 219° Southwest 460 529 38,000  Level Gander Center
02:24PM 51.9333 -60.7333 231° Southwest 470 541 38,000  Level Gander Center
02:25PM 51.8500 -60.9000 226° Southwest 470 541 38,000  Level Gander Center
02:26PM 51.7500 -61.0667 220° Southwest 470 541 38,000  Level Gander Center
02:27PM 51.6500 -61.2000 231° Southwest 470 541 38,000  Level Gander Center
02:28PM 51.5667 -61.3667 220° Southwest 470 541 38,000  Level Gander Center
02:29PM 51.4667 -61.5000 225° Southwest 470 541 38,000  Level Gander Center
02:30PM 51.3833 -61.6333 223° Southwest 480 552 38,000  Level Gander Center
02:31PM 51.2833 -61.7833 226° Southwest 480 552 38,000  Level Gander Center
02:32PM 51.1833 -61.9500 223° Southwest 480 552 38,000  Level Gander Center
02:33PM 51.0833 -62.1000 225° Southwest 480 552 38,000  Level Gander Center
02:34PM 51.0000 -62.2333 226° Southwest 480 552 38,000  Level Gander Center
02:35PM 50.9000 -62.4000 225° Southwest 470 541 38,000  Level Gander Center
02:36PM 50.8167 -62.5333 224° Southwest 470 541 38,000  Level Gander Center
02:37PM 50.7167 -62.6833 225° Southwest 470 541 38,000  Level Gander Center
02:38PM 50.6333 -62.8167 224° Southwest 470 541 38,000  Level Gander Center
02:39PM 50.5333 -62.9667 224° Southwest 470 541 38,000  Level Gander Center
02:40PM 50.4333 -63.1167 220° Southwest 480 552 38,000  Level Gander Center
02:41PM 50.3333 -63.2500 224° Southwest 480 552 38,000  Level Gander Center
02:42PM 50.2333 -63.4000 224° Southwest 490 564 38,000  Level Gander Center
02:43PM 50.1333 -63.5500 224° Southwest 490 564 38,000  Level Gander Center
02:44PM 50.0333 -63.7000 221° Southwest 490 564 38,000  Level Gander Center
02:45PM 49.9333 -63.8333 224° Southwest 490 564 38,000  Level Gander Center
02:46PM 49.8333 -63.9833 224° Southwest 490 564 38,000  Level Gander Center
02:47PM 49.7333 -64.1333 224° Southwest 500 575 38,000  Level Gander Center
02:48PM 49.6333 -64.2833 217° Southwest 490 564 38,000  Level Gander Center
02:49PM 49.5167 -64.4167 226° Southwest 490 564 38,000  Level Gander Center
02:50PM 49.4333 -64.5500 224° Southwest 490 564 38,000  Level Gander Center
02:51PM 49.3333 -64.7000 221° Southwest 490 564 38,000  Level Gander Center
02:52PM 49.2333 -64.8333 220° Southwest 490 564 38,000  Level Gander Center
02:53PM 49.1167 -64.9833 217° Southwest 490 564 38,000  Level Gander Center
02:54PM 49.0167 -65.1000 230° Southwest 500 575 38,000  Level Gander Center
02:55PM 48.9167 -65.2833 218° Southwest 500 575 38,000  Level Gander Center
02:56PM 48.8167 -65.4000 221° Southwest 500 575 38,000  Level Gander Center
02:57PM 48.7167 -65.5333 225° Southwest 500 575 38,000  Level Gander Center
02:58PM 48.6167 -65.6833 217° Southwest 510 587 38,000  Level Gander Center
02:59PM 48.5000 -65.8167 221° Southwest 510 587 38,000  Level Gander Center
03:00PM 48.3833 -65.9667 227° Southwest 510 587 38,000  Level Gander Center
03:01PM 48.3000 -66.1000 220° Southwest 520 598 38,000  Level Gander Center
03:02PM 48.1667 -66.2667 218° Southwest 520 598 38,000  Level Gander Center
03:03PM 48.0667 -66.3833 224° Southwest 520 598 38,000  Level Gander Center
03:04PM 47.9500 -66.5500 222° Southwest 520 598 38,000  Level Gander Center
03:05PM 47.8500 -66.6833 219° Southwest 520 598 38,000  Level Gander Center
03:06PM 47.7667 -66.7833 224° Southwest 520 598 38,000  Level Moncton Center
03:08PM 47.5506 -67.0878 219° Southwest 519 597 38,000  Level Boston Center
03:09PM 47.4239 -67.2383 220° Southwest 534 615 38,000  Level Boston Center
03:10PM 47.3133 -67.3775 223° Southwest 534 615 38,000  Level Boston Center
03:11PM 47.2092 -67.5214 224° Southwest 528 608 38,000  Level Boston Center
03:12PM 47.1008 -67.6744 221° Southwest 534 615 38,000  Level Boston Center
03:13PM 46.9919 -67.8147 223° Southwest 534 615 38,000  Level Boston Center
03:14PM 46.8831 -67.9606 221° Southwest 534 615 38,000  Level Boston Center
03:15PM 46.7797 -68.0900 209° Southwest 539 620 38,000  Level Boston Center
03:16PM 46.6461 -68.1972 210° Southwest 544 626 38,000  Level Boston Center
03:17PM 46.5167 -68.3067 209° Southwest 544 626 38,000  Level Boston Center
03:18PM 46.3811 -68.4158 208° Southwest 549 632 38,000  Level Boston Center
03:19PM 46.2286 -68.5319 209° Southwest 555 639 38,000  Level Boston Center
03:20PM 46.0906 -68.6400 207° Southwest 560 644 38,000  Level Boston Center
03:21PM 45.9544 -68.7419 209° Southwest 560 644 38,000  Level Boston Center
03:22PM 45.8161 -68.8519 209° Southwest 565 650 38,000  Level Boston Center
03:23PM 45.6961 -68.9458 208° Southwest 559 643 38,000  Level Boston Center
03:24PM 45.5575 -69.0492 209° Southwest 559 643 38,000  Level Boston Center
03:25PM 45.4211 -69.1578 208° Southwest 564 649 38,000  Level Boston Center
03:26PM 45.2842 -69.2600 208° Southwest 564 649 38,000  Level Boston Center
03:27PM 45.1456 -69.3647 209° Southwest 564 649 38,000  Level Boston Center
03:28PM 45.0147 -69.4656 207° Southwest 564 649 38,000  Level Boston Center
03:29PM 44.8550 -69.5792 209° Southwest 564 649 38,000  Level Boston Center
03:30PM 44.7325 -69.6756 208° Southwest 573 659 38,000  Level Boston Center
03:31PM 44.5972 -69.7753 210° Southwest 568 654 38,000  Level Boston Center
03:32PM 44.4642 -69.8833 211° Southwest 556 640 38,000  Level Boston Center
03:33PM 44.3353 -69.9903 212° Southwest 536 617 38,000  Level Boston Center
03:34PM 44.1900 -70.1150 211° Southwest 549 632 38,000  Level Boston Center
03:35PM 44.0711 -70.2150 211° Southwest 554 638 38,000  Level Boston Center
03:36PM 43.9378 -70.3267 210° Southwest 554 638 38,000  Level Boston Center
03:37PM 43.7856 -70.4500 210° Southwest 570 656 38,000  Level Boston Center
03:38PM 43.6644 -70.5486 211° Southwest 573 659 38,000  Level Boston Center
03:39PM 43.5183 -70.6678 210° Southwest 564 649 38,000  Level Boston Center
03:40PM 43.3928 -70.7686 211° Southwest 564 649 38,000  Level Boston Center
03:41PM 43.2589 -70.8778 210° Southwest 564 649 38,000  Level Boston Center
03:42PM 43.1228 -70.9864 210° Southwest 569 655 38,000  Level Boston Center
03:43PM 42.9844 -71.0975 210° Southwest 569 655 38,000  Level Boston Center
03:44PM 42.8481 -71.2053 210° Southwest 569 655 38,000  Level Boston Center
03:45PM 42.7136 -71.3097 210° Southwest 569 655 38,000  Level Boston Center
03:46PM 42.5772 -71.4167 210° Southwest 564 649 38,000  Level Boston Center
03:47PM 42.4425 -71.5200 208° Southwest 564 649 38,000 240 Level Boston Center
03:48PM 42.2933 -71.6289 210° Southwest 564 649 38,500 600 Climbing Boston Center
03:49PM 42.1564 -71.7344 210° Southwest 564 649 39,200 600 Climbing Boston Center
03:50PM 42.0194 -71.8392 211° Southwest 564 649 39,700 360 Climbing Boston Center
03:51PM 41.9033 -71.9325 209° Southwest 559 643 40,000 120 Climbing Boston Center
03:52PM 41.7517 -72.0450 209° Southwest 559 643 40,000  Level Boston Center
03:53PM 41.6206 -72.1431 209° Southwest 559 643 40,000  Level Boston Center
03:54PM 41.4875 -72.2406 209° Southwest 559 643 40,000  Level Boston Center
03:55PM 41.3603 -72.3350 212° Southwest 542 624 40,000  Level Boston Center
03:56PM 41.2269 -72.4456 217° Southwest 548 631 40,000  Level Boston Center
03:57PM 41.1083 -72.5642 217° Southwest 553 636 40,000  Level Boston Center
03:58PM 40.9892 -72.6819 214° Southwest 553 636 40,000  Level Boston Center
03:59PM 40.8681 -72.7914 216° Southwest 548 631 40,000  Level Boston Center
04:00PM 40.7447 -72.9086 216° Southwest 548 631 40,000  Level Boston Center
04:01PM 40.6381 -73.0089 216° Southwest 539 620 40,000  Level Boston Center
04:03PM 40.4353 -73.1989 216° Southwest 555 639 40,000  Level Washington Center
04:04PM 40.3147 -73.3117 215° Southwest 555 639 40,000  Level Washington Center
04:05PM 40.1917 -73.4244 215° Southwest 555 639 40,000  Level Washington Center
04:06PM 40.0708 -73.5339 215° Southwest 550 633 40,000  Level Washington Center
04:07PM 39.9497 -73.6456 215° Southwest 550 633 40,000  Level Washington Center
04:08PM 39.8267 -73.7597 215° Southwest 545 627 40,000  Level Washington Center
04:09PM 39.7053 -73.8708 215° Southwest 550 633 40,000  Level Washington Center
04:10PM 39.5839 -73.9814 214° Southwest 550 633 40,000  Level Washington Center
04:11PM 39.4622 -74.0889 215° Southwest 544 626 40,000  Level Washington Center
04:12PM 39.3428 -74.1989 215° Southwest 544 626 40,000  Level Washington Center
04:13PM 39.2189 -74.3111 215° Southwest 544 626 40,000  Level Washington Center
04:14PM 39.0992 -74.4200 214° Southwest 539 620 40,000  Level Washington Center
04:15PM 38.9753 -74.5289 215° Southwest 539 620 40,000  Level Washington Center
04:16PM 38.8531 -74.6372 215° Southwest 539 620 40,000  Level Washington Center
04:17PM 38.7558 -74.7239 215° Southwest 539 620 40,000  Level Washington Center
04:18PM 38.6253 -74.8422 214° Southwest 534 615 40,000  Level Washington Center
04:19PM 38.5028 -74.9469 215° Southwest 539 620 40,000  Level Washington Center
04:20PM 38.3803 -75.0567 215° Southwest 539 620 40,000  Level Washington Center
04:21PM 38.2600 -75.1633 215° Southwest 539 620 40,000  Level Washington Center
04:22PM 38.1392 -75.2722 214° Southwest 539 620 40,000  Level Washington Center
04:23PM 38.0164 -75.3756 214° Southwest 539 620 40,000  Level Washington Center
04:24PM 37.8936 -75.4811 215° Southwest 539 620 40,000  Level Washington Center
04:25PM 37.7706 -75.5892 214° Southwest 539 620 40,000  Level Washington Center
04:26PM 37.6456 -75.6942 214° Southwest 539 620 40,000  Level Washington Center
04:27PM 37.5222 -75.7986 214° Southwest 539 620 40,000  Level Washington Center
04:28PM 37.3989 -75.9028 214° Southwest 539 620 40,000  Level Washington Center
04:29PM 37.2736 -76.0094 214° Southwest 539 620 40,000  Level Washington Center
04:30PM 37.1522 -76.1131 212° Southwest 539 620 40,000  Level Washington Center
04:31PM 37.0119 -76.2214 213° Southwest 544 626 40,000  Level Washington Center
04:32PM 36.8925 -76.3192 214° Southwest 539 620 40,000  Level Washington Center
04:33PM 36.7728 -76.4217 215° Southwest 529 609 40,000  Level Washington Center
04:34PM 36.6658 -76.5164 213° Southwest 529 609 40,000  Level Washington Center
04:35PM 36.5439 -76.6158 214° Southwest 529 609 40,000  Level Washington Center
04:36PM 36.4242 -76.7147 212° Southwest 529 609 40,000  Level Washington Center
04:37PM 36.3022 -76.8111 213° Southwest 524 603 40,000  Level Washington Center
04:38PM 36.1800 -76.9094 214° Southwest 524 603 40,000  Level Washington Center
04:39PM 36.0622 -77.0078 213° Southwest 524 603 40,000  Level Washington Center
04:40PM 35.9419 -77.1031 213° Southwest 524 603 40,000  Level Washington Center
04:41PM 35.8156 -77.2031 213° Southwest 515 593 40,000 -360 Level Washington Center
04:42PM 35.7081 -77.2906 213° Southwest 515 593 39,300 -1,020 Descending Washington Center
04:43PM 35.5897 -77.3850 212° Southwest 515 593 38,000 -1,260 Descending Washington Center
04:44PM 35.4672 -77.4792 215° Southwest 515 593 36,900 -1,080 Descending Washington Center
04:45PM 35.3508 -77.5808 220° Southwest 515 593 35,900 -1,140 Descending Washington Center
04:46PM 35.2406 -77.6928 220° Southwest 515 593 34,700 -960 Descending Washington Center
04:47PM 35.1214 -77.8164 220° Southwest 520 598 34,000 -360 Descending Washington Center
04:48PM 35.0108 -77.9300 221° Southwest 520 598 34,000 -60 Level Washington Center
04:49PM 34.9000 -78.0458 220° Southwest 512 589 33,900 -480 Descending Washington Center
04:50PM 34.8147 -78.1319 221° Southwest 514 592 33,100 -1,020 Descending Washington Center
04:52PM 34.5314 -78.4267 221° Southwest 511 588 30,400 -1,200 Descending Jacksonville Center
04:53PM 34.4267 -78.5353 218° Southwest 511 588 29,000 -1,200 Descending Jacksonville Center
04:54PM 34.3156 -78.6414 221° Southwest 511 588 28,000 -660 Descending Jacksonville Center
04:55PM 34.2086 -78.7522 220° Southwest 511 588 27,700 -660 Descending Jacksonville Center
04:56PM 34.1036 -78.8575 219° Southwest 506 582 26,800 -900 Descending Jacksonville Center
04:57PM 34.0125 -78.9469 220° Southwest 500 575 26,000 -780 Descending Jacksonville Center
04:58PM 33.9175 -79.0436 220° Southwest 479 551 25,300 -780 Descending Jacksonville Center
04:59PM 33.8203 -79.1406 219° Southwest 464 534 24,500 -900 Descending Jacksonville Center
05:00PM 33.7269 -79.2317 218° Southwest 453 521 23,600 -1,620 Descending Jacksonville Center
05:01PM 33.6253 -79.3258 219° Southwest 435 501 21,300 -2,220 Descending Jacksonville Center
05:02PM 33.5542 -79.3958 219° Southwest 428 493 19,200 -2,160 Descending Jacksonville Center
05:03PM 33.4608 -79.4867 220° Southwest 416 479 17,000 -2,040 Descending Jacksonville Center
05:04PM 33.3775 -79.5694 219° Southwest 406 467 15,200 -1,620 Descending Jacksonville Center
05:05PM 33.3000 -79.6444 233° Southwest 386 444 13,800 -1,500 Descending Jacksonville Center
05:06PM 33.2500 -79.7233 244° Southwest 354 407 12,300 -1,920 Descending Jacksonville Center
05:07PM 33.2144 -79.8089 243° Southwest 308 354 10,100 -2,400 Descending Jacksonville Center
05:08PM 33.1769 -79.8972 244° Southwest 262 302 7,600 -1,800 Descending Jacksonville Center
05:09PM 33.1511 -79.9600 243° Southwest 267 307 6,500 -1,260 Descending Jacksonville Center
05:10PM 33.1236 -80.0253 243° Southwest 242 278 5,100 -1,440 Descending Jacksonville Center
05:11PM 33.0958 -80.0908 226° Southwest 231 266 3,700 -1,320 Descending Jacksonville Center
05:12PM 33.0572 -80.1392 154° Southeast 217 250 2,500 -780 Descending Jacksonville Center
05:15PM 32.9453 -80.0756 154° Southeast 152 175 900 -600 Descending Jacksonville Center